sensor_id;sensor_type;location;lat;lon;timestamp;P1;durP1;ratioP1;P2;durP2;ratioP2
35488;SDS011;21602;55.670;37.578;2024-03-08T00:00:56;6.07;;;3.63;;
35488;SDS011;21602;55.670;37.578;2024-03-08T00:03:23;5.72;;;3.28;;
35488;SDS011;21602;55.670;37.578;2024-03-08T00:05:48;7.60;;;3.33;;
35488;SDS011;21602;55.670;37.578;2024-03-08T00:08:14;4.93;;;3.10;;
35488;SDS011;21602;55.670;37.578;2024-03-08T00:10:40;3.87;;;2.67;;
35488;SDS011;21602;55.670;37.578;2024-03-08T00:13:06;5.50;;;2.60;;
35488;SDS011;21602;55.670;37.578;2024-03-08T00:15:32;4.97;;;3.40;;
35488;SDS011;21602;55.670;37.578;2024-03-08T00:18:01;3.53;;;2.70;;
35488;SDS011;21602;55.670;37.578;2024-03-08T00:20:27;6.67;;;3.23;;
35488;SDS011;21602;55.670;37.578;2024-03-08T00:22:53;4.83;;;2.97;;
35488;SDS011;21602;55.670;37.578;2024-03-08T00:25:23;4.70;;;2.50;;
35488;SDS011;21602;55.670;37.578;2024-03-08T00:27:50;3.60;;;3.00;;
35488;SDS011;21602;55.670;37.578;2024-03-08T00:30:16;4.50;;;2.63;;
35488;SDS011;21602;55.670;37.578;2024-03-08T00:32:42;3.47;;;2.63;;
35488;SDS011;21602;55.670;37.578;2024-03-08T00:35:08;5.03;;;3.10;;
35488;SDS011;21602;55.670;37.578;2024-03-08T00:37:34;4.50;;;2.77;;
35488;SDS011;21602;55.670;37.578;2024-03-08T00:40:00;6.00;;;2.40;;
35488;SDS011;21602;55.670;37.578;2024-03-08T00:42:26;4.20;;;3.00;;
35488;SDS011;21602;55.670;37.578;2024-03-08T00:44:54;4.43;;;3.00;;
35488;SDS011;21602;55.670;37.578;2024-03-08T00:47:20;2.90;;;2.03;;
35488;SDS011;21602;55.670;37.578;2024-03-08T00:49:48;3.58;;;2.58;;
35488;SDS011;21602;55.670;37.578;2024-03-08T00:52:14;4.37;;;2.90;;
35488;SDS011;21602;55.670;37.578;2024-03-08T00:54:40;5.23;;;2.67;;
35488;SDS011;21602;55.670;37.578;2024-03-08T00:57:05;5.40;;;2.80;;
35488;SDS011;21602;55.670;37.578;2024-03-08T00:59:32;6.50;;;2.93;;
35488;SDS011;21602;55.670;37.578;2024-03-08T01:01:58;3.93;;;2.87;;
35488;SDS011;21602;55.670;37.578;2024-03-08T01:04:25;3.80;;;2.37;;
35488;SDS011;21602;55.670;37.578;2024-03-08T01:09:23;3.50;;;2.20;;
35488;SDS011;21602;55.670;37.578;2024-03-08T01:11:49;3.90;;;2.60;;
35488;SDS011;21602;55.670;37.578;2024-03-08T01:14:16;3.63;;;2.60;;
35488;SDS011;21602;55.670;37.578;2024-03-08T01:16:42;4.00;;;2.57;;
35488;SDS011;21602;55.670;37.578;2024-03-08T01:19:08;3.87;;;2.63;;
35488;SDS011;21602;55.670;37.578;2024-03-08T01:21:34;3.23;;;2.03;;
35488;SDS011;21602;55.670;37.578;2024-03-08T01:24:00;5.40;;;2.40;;
35488;SDS011;21602;55.670;37.578;2024-03-08T01:26:25;4.17;;;2.93;;
35488;SDS011;21602;55.670;37.578;2024-03-08T01:28:51;5.30;;;2.97;;
35488;SDS011;21602;55.670;37.578;2024-03-08T01:31:17;6.73;;;2.80;;
35488;SDS011;21602;55.670;37.578;2024-03-08T01:33:43;3.50;;;2.43;;
35488;SDS011;21602;55.670;37.578;2024-03-08T01:36:09;4.03;;;2.47;;
35488;SDS011;21602;55.670;37.578;2024-03-08T01:38:34;4.17;;;2.67;;
35488;SDS011;21602;55.670;37.578;2024-03-08T01:41:01;3.47;;;2.50;;
35488;SDS011;21602;55.670;37.578;2024-03-08T01:43:28;3.73;;;3.00;;
35488;SDS011;21602;55.670;37.578;2024-03-08T01:45:58;3.67;;;2.57;;
35488;SDS011;21602;55.670;37.578;2024-03-08T01:48:33;3.80;;;2.70;;
35488;SDS011;21602;55.670;37.578;2024-03-08T01:50:59;5.77;;;3.03;;
35488;SDS011;21602;55.670;37.578;2024-03-08T01:53:28;5.23;;;2.63;;
35488;SDS011;21602;55.670;37.578;2024-03-08T01:55:56;5.13;;;3.07;;
35488;SDS011;21602;55.670;37.578;2024-03-08T01:58:23;4.73;;;2.90;;
35488;SDS011;21602;55.670;37.578;2024-03-08T02:00:49;7.33;;;3.07;;
35488;SDS011;21602;55.670;37.578;2024-03-08T02:03:16;4.57;;;2.67;;
35488;SDS011;21602;55.670;37.578;2024-03-08T02:05:42;6.23;;;3.63;;
35488;SDS011;21602;55.670;37.578;2024-03-08T02:08:08;4.77;;;3.30;;
35488;SDS011;21602;55.670;37.578;2024-03-08T02:10:40;7.40;;;3.37;;
35488;SDS011;21602;55.670;37.578;2024-03-08T02:13:09;5.00;;;3.60;;
35488;SDS011;21602;55.670;37.578;2024-03-08T02:18:40;3.80;;;2.93;;
35488;SDS011;21602;55.670;37.578;2024-03-08T02:21:07;4.17;;;3.17;;
35488;SDS011;21602;55.670;37.578;2024-03-08T02:23:33;5.07;;;3.13;;
35488;SDS011;21602;55.670;37.578;2024-03-08T02:25:59;6.10;;;3.27;;
35488;SDS011;21602;55.670;37.578;2024-03-08T02:28:25;5.83;;;3.20;;
35488;SDS011;21602;55.670;37.578;2024-03-08T02:30:51;7.10;;;3.10;;
35488;SDS011;21602;55.670;37.578;2024-03-08T02:33:21;4.53;;;3.00;;
35488;SDS011;21602;55.670;37.578;2024-03-08T02:35:48;6.53;;;3.10;;
35488;SDS011;21602;55.670;37.578;2024-03-08T02:38:19;4.00;;;3.23;;
35488;SDS011;21602;55.670;37.578;2024-03-08T02:40:46;6.20;;;3.53;;
35488;SDS011;21602;55.670;37.578;2024-03-08T02:43:13;4.53;;;3.10;;
35488;SDS011;21602;55.670;37.578;2024-03-08T02:45:40;5.97;;;3.30;;
35488;SDS011;21602;55.670;37.578;2024-03-08T02:48:07;5.80;;;3.00;;
35488;SDS011;21602;55.670;37.578;2024-03-08T02:50:34;8.00;;;3.50;;
35488;SDS011;21602;55.670;37.578;2024-03-08T02:53:00;5.03;;;3.17;;
35488;SDS011;21602;55.670;37.578;2024-03-08T02:55:26;5.43;;;3.53;;
35488;SDS011;21602;55.670;37.578;2024-03-08T02:57:52;5.70;;;4.30;;
35488;SDS011;21602;55.670;37.578;2024-03-08T03:00:20;4.37;;;3.23;;
35488;SDS011;21602;55.670;37.578;2024-03-08T03:02:47;5.90;;;3.03;;
35488;SDS011;21602;55.670;37.578;2024-03-08T03:05:12;6.80;;;2.83;;
35488;SDS011;21602;55.670;37.578;2024-03-08T03:07:39;5.43;;;3.03;;
35488;SDS011;21602;55.670;37.578;2024-03-08T03:10:05;5.33;;;3.23;;
35488;SDS011;21602;55.670;37.578;2024-03-08T03:12:32;7.40;;;3.77;;
35488;SDS011;21602;55.670;37.578;2024-03-08T03:14:59;6.83;;;3.63;;
35488;SDS011;21602;55.670;37.578;2024-03-08T03:17:25;5.07;;;3.20;;
35488;SDS011;21602;55.670;37.578;2024-03-08T03:19:52;7.57;;;3.93;;
35488;SDS011;21602;55.670;37.578;2024-03-08T03:22:18;6.83;;;3.63;;
35488;SDS011;21602;55.670;37.578;2024-03-08T03:24:44;6.00;;;3.30;;
35488;SDS011;21602;55.670;37.578;2024-03-08T03:27:14;6.70;;;3.80;;
35488;SDS011;21602;55.670;37.578;2024-03-08T03:29:40;6.37;;;3.87;;
35488;SDS011;21602;55.670;37.578;2024-03-08T03:32:14;6.87;;;4.33;;
35488;SDS011;21602;55.670;37.578;2024-03-08T03:34:40;6.40;;;3.73;;
35488;SDS011;21602;55.670;37.578;2024-03-08T03:37:08;5.13;;;3.80;;
35488;SDS011;21602;55.670;37.578;2024-03-08T03:39:37;6.10;;;3.40;;
35488;SDS011;21602;55.670;37.578;2024-03-08T03:42:18;6.13;;;3.90;;
35488;SDS011;21602;55.670;37.578;2024-03-08T03:44:47;8.33;;;4.40;;
35488;SDS011;21602;55.670;37.578;2024-03-08T03:47:16;7.90;;;3.80;;
35488;SDS011;21602;55.670;37.578;2024-03-08T03:49:42;5.60;;;4.00;;
35488;SDS011;21602;55.670;37.578;2024-03-08T03:52:10;5.68;;;3.80;;
35488;SDS011;21602;55.670;37.578;2024-03-08T03:54:36;6.43;;;3.80;;
35488;SDS011;21602;55.670;37.578;2024-03-08T03:57:02;6.40;;;3.90;;
35488;SDS011;21602;55.670;37.578;2024-03-08T03:59:28;5.93;;;4.10;;
35488;SDS011;21602;55.670;37.578;2024-03-08T04:01:54;5.70;;;4.10;;
35488;SDS011;21602;55.670;37.578;2024-03-08T04:04:23;6.97;;;4.23;;
35488;SDS011;21602;55.670;37.578;2024-03-08T04:06:50;8.03;;;4.20;;
35488;SDS011;21602;55.670;37.578;2024-03-08T04:09:16;6.03;;;3.90;;
35488;SDS011;21602;55.670;37.578;2024-03-08T04:11:46;6.83;;;4.30;;
35488;SDS011;21602;55.670;37.578;2024-03-08T04:14:12;7.40;;;4.70;;
35488;SDS011;21602;55.670;37.578;2024-03-08T04:16:38;6.27;;;4.37;;
35488;SDS011;21602;55.670;37.578;2024-03-08T04:19:04;5.47;;;3.63;;
35488;SDS011;21602;55.670;37.578;2024-03-08T04:21:30;5.37;;;3.80;;
35488;SDS011;21602;55.670;37.578;2024-03-08T04:23:56;5.50;;;4.03;;
35488;SDS011;21602;55.670;37.578;2024-03-08T04:26:22;6.73;;;4.47;;
35488;SDS011;21602;55.670;37.578;2024-03-08T04:31:15;6.87;;;4.43;;
35488;SDS011;21602;55.670;37.578;2024-03-08T04:33:41;5.93;;;4.13;;
35488;SDS011;21602;55.670;37.578;2024-03-08T04:36:07;6.20;;;4.07;;
35488;SDS011;21602;55.670;37.578;2024-03-08T04:38:33;7.53;;;4.50;;
35488;SDS011;21602;55.670;37.578;2024-03-08T04:40:59;6.77;;;4.30;;
35488;SDS011;21602;55.670;37.578;2024-03-08T04:43:27;6.55;;;4.15;;
35488;SDS011;21602;55.670;37.578;2024-03-08T04:45:55;6.20;;;4.72;;
35488;SDS011;21602;55.670;37.578;2024-03-08T04:48:21;6.00;;;4.10;;
35488;SDS011;21602;55.670;37.578;2024-03-08T04:50:46;6.13;;;4.23;;
35488;SDS011;21602;55.670;37.578;2024-03-08T04:53:12;6.37;;;4.53;;
35488;SDS011;21602;55.670;37.578;2024-03-08T04:55:39;8.50;;;4.80;;
35488;SDS011;21602;55.670;37.578;2024-03-08T04:58:05;6.97;;;4.67;;
35488;SDS011;21602;55.670;37.578;2024-03-08T05:00:31;6.63;;;4.37;;
35488;SDS011;21602;55.670;37.578;2024-03-08T05:02:58;7.20;;;4.33;;
35488;SDS011;21602;55.670;37.578;2024-03-08T05:05:24;7.47;;;5.03;;
35488;SDS011;21602;55.670;37.578;2024-03-08T05:07:50;7.13;;;4.47;;
35488;SDS011;21602;55.670;37.578;2024-03-08T05:10:16;7.33;;;4.37;;
35488;SDS011;21602;55.670;37.578;2024-03-08T05:12:44;8.68;;;5.32;;
35488;SDS011;21602;55.670;37.578;2024-03-08T05:15:10;7.57;;;4.70;;
35488;SDS011;21602;55.670;37.578;2024-03-08T05:17:36;8.33;;;4.77;;
35488;SDS011;21602;55.670;37.578;2024-03-08T05:20:02;7.73;;;4.93;;
35488;SDS011;21602;55.670;37.578;2024-03-08T05:22:29;9.00;;;4.90;;
35488;SDS011;21602;55.670;37.578;2024-03-08T05:24:55;8.63;;;5.00;;
35488;SDS011;21602;55.670;37.578;2024-03-08T05:27:20;9.00;;;5.33;;
35488;SDS011;21602;55.670;37.578;2024-03-08T05:29:49;6.88;;;4.43;;
35488;SDS011;21602;55.670;37.578;2024-03-08T05:32:14;7.53;;;4.60;;
35488;SDS011;21602;55.670;37.578;2024-03-08T05:34:40;10.87;;;5.40;;
35488;SDS011;21602;55.670;37.578;2024-03-08T05:37:08;9.80;;;5.40;;
35488;SDS011;21602;55.670;37.578;2024-03-08T05:42:02;7.50;;;4.83;;
35488;SDS011;21602;55.670;37.578;2024-03-08T05:44:31;9.87;;;4.73;;
35488;SDS011;21602;55.670;37.578;2024-03-08T05:46:56;9.27;;;5.20;;
35488;SDS011;21602;55.670;37.578;2024-03-08T05:49:25;8.23;;;5.50;;
35488;SDS011;21602;55.670;37.578;2024-03-08T05:51:51;7.83;;;5.17;;
35488;SDS011;21602;55.670;37.578;2024-03-08T05:54:17;7.67;;;4.77;;
35488;SDS011;21602;55.670;37.578;2024-03-08T05:56:43;8.40;;;4.80;;
35488;SDS011;21602;55.670;37.578;2024-03-08T05:59:09;8.43;;;5.23;;
35488;SDS011;21602;55.670;37.578;2024-03-08T06:01:38;8.17;;;4.70;;
35488;SDS011;21602;55.670;37.578;2024-03-08T06:04:06;10.00;;;4.38;;
35488;SDS011;21602;55.670;37.578;2024-03-08T06:06:37;7.03;;;4.50;;
35488;SDS011;21602;55.670;37.578;2024-03-08T06:09:03;9.55;;;4.47;;
35488;SDS011;21602;55.670;37.578;2024-03-08T06:11:40;6.77;;;4.33;;
35488;SDS011;21602;55.670;37.578;2024-03-08T06:14:06;7.97;;;5.07;;
35488;SDS011;21602;55.670;37.578;2024-03-08T06:16:32;11.50;;;5.03;;
35488;SDS011;21602;55.670;37.578;2024-03-08T06:19:01;7.50;;;5.17;;
35488;SDS011;21602;55.670;37.578;2024-03-08T06:21:29;8.27;;;4.67;;
35488;SDS011;21602;55.670;37.578;2024-03-08T06:23:55;9.13;;;4.70;;
35488;SDS011;21602;55.670;37.578;2024-03-08T06:26:23;10.83;;;5.07;;
35488;SDS011;21602;55.670;37.578;2024-03-08T06:28:58;7.77;;;4.97;;
35488;SDS011;21602;55.670;37.578;2024-03-08T06:31:24;7.70;;;5.30;;
35488;SDS011;21602;55.670;37.578;2024-03-08T06:33:50;10.07;;;5.20;;
35488;SDS011;21602;55.670;37.578;2024-03-08T06:36:16;5.77;;;4.20;;
35488;SDS011;21602;55.670;37.578;2024-03-08T06:38:45;8.60;;;5.47;;
35488;SDS011;21602;55.670;37.578;2024-03-08T06:41:11;9.13;;;5.20;;
35488;SDS011;21602;55.670;37.578;2024-03-08T06:43:43;6.50;;;5.23;;
35488;SDS011;21602;55.670;37.578;2024-03-08T06:46:10;7.03;;;4.77;;
35488;SDS011;21602;55.670;37.578;2024-03-08T06:48:41;7.03;;;4.90;;
35488;SDS011;21602;55.670;37.578;2024-03-08T06:51:06;9.67;;;5.00;;
35488;SDS011;21602;55.670;37.578;2024-03-08T06:53:32;7.90;;;5.77;;
35488;SDS011;21602;55.670;37.578;2024-03-08T06:56:00;9.07;;;4.60;;
35488;SDS011;21602;55.670;37.578;2024-03-08T06:58:27;7.97;;;4.50;;
35488;SDS011;21602;55.670;37.578;2024-03-08T07:00:53;7.23;;;4.77;;
35488;SDS011;21602;55.670;37.578;2024-03-08T07:03:19;9.07;;;4.43;;
35488;SDS011;21602;55.670;37.578;2024-03-08T07:05:45;7.30;;;5.57;;
35488;SDS011;21602;55.670;37.578;2024-03-08T07:08:11;7.73;;;5.10;;
35488;SDS011;21602;55.670;37.578;2024-03-08T07:10:41;7.60;;;5.17;;
35488;SDS011;21602;55.670;37.578;2024-03-08T07:13:10;7.63;;;4.93;;
35488;SDS011;21602;55.670;37.578;2024-03-08T07:15:36;7.83;;;4.90;;
35488;SDS011;21602;55.670;37.578;2024-03-08T07:18:02;8.93;;;5.27;;
35488;SDS011;21602;55.670;37.578;2024-03-08T07:20:28;9.73;;;5.30;;
35488;SDS011;21602;55.670;37.578;2024-03-08T07:22:54;8.17;;;4.87;;
35488;SDS011;21602;55.670;37.578;2024-03-08T07:25:20;6.93;;;4.40;;
35488;SDS011;21602;55.670;37.578;2024-03-08T07:27:54;6.83;;;4.73;;
35488;SDS011;21602;55.670;37.578;2024-03-08T07:30:26;8.93;;;5.03;;
35488;SDS011;21602;55.670;37.578;2024-03-08T07:33:11;7.63;;;5.45;;
35488;SDS011;21602;55.670;37.578;2024-03-08T07:35:38;6.83;;;4.53;;
35488;SDS011;21602;55.670;37.578;2024-03-08T07:38:16;7.05;;;4.97;;
35488;SDS011;21602;55.670;37.578;2024-03-08T07:40:42;7.97;;;4.50;;
35488;SDS011;21602;55.670;37.578;2024-03-08T07:43:09;7.57;;;5.55;;
35488;SDS011;21602;55.670;37.578;2024-03-08T07:45:36;8.02;;;5.10;;
35488;SDS011;21602;55.670;37.578;2024-03-08T07:48:05;7.18;;;4.68;;
35488;SDS011;21602;55.670;37.578;2024-03-08T07:50:40;7.18;;;4.72;;
35488;SDS011;21602;55.670;37.578;2024-03-08T07:55:33;5.75;;;4.30;;
35488;SDS011;21602;55.670;37.578;2024-03-08T07:58:02;8.70;;;4.77;;
35488;SDS011;21602;55.670;37.578;2024-03-08T08:00:29;6.60;;;4.90;;
35488;SDS011;21602;55.670;37.578;2024-03-08T08:02:56;8.60;;;5.20;;
35488;SDS011;21602;55.670;37.578;2024-03-08T08:05:22;7.10;;;5.15;;
35488;SDS011;21602;55.670;37.578;2024-03-08T08:07:52;7.47;;;5.47;;
35488;SDS011;21602;55.670;37.578;2024-03-08T08:10:21;8.18;;;5.13;;
35488;SDS011;21602;55.670;37.578;2024-03-08T08:13:04;12.40;;;5.35;;
35488;SDS011;21602;55.670;37.578;2024-03-08T08:15:45;8.87;;;5.47;;
35488;SDS011;21602;55.670;37.578;2024-03-08T08:18:40;7.93;;;4.87;;
35488;SDS011;21602;55.670;37.578;2024-03-08T08:23:55;8.45;;;5.22;;
35488;SDS011;21602;55.670;37.578;2024-03-08T08:26:23;6.75;;;4.10;;
35488;SDS011;21602;55.670;37.578;2024-03-08T08:28:51;9.48;;;5.43;;
35488;SDS011;21602;55.670;37.578;2024-03-08T08:33:46;11.10;;;5.03;;
35488;SDS011;21602;55.670;37.578;2024-03-08T08:36:19;8.90;;;4.85;;
35488;SDS011;21602;55.670;37.578;2024-03-08T08:38:47;7.53;;;5.78;;
35488;SDS011;21602;55.670;37.578;2024-03-08T08:41:16;9.18;;;5.90;;
35488;SDS011;21602;55.670;37.578;2024-03-08T08:43:42;8.67;;;6.00;;
35488;SDS011;21602;55.670;37.578;2024-03-08T08:49:38;11.47;;;5.67;;
35488;SDS011;21602;55.670;37.578;2024-03-08T08:52:14;8.75;;;5.50;;
35488;SDS011;21602;55.670;37.578;2024-03-08T08:54:45;7.30;;;5.68;;
35488;SDS011;21602;55.670;37.578;2024-03-08T08:57:10;6.47;;;5.03;;
35488;SDS011;21602;55.670;37.578;2024-03-08T08:59:36;11.60;;;6.60;;
35488;SDS011;21602;55.670;37.578;2024-03-08T09:02:05;7.60;;;5.95;;
35488;SDS011;21602;55.670;37.578;2024-03-08T09:04:32;9.40;;;5.97;;
35488;SDS011;21602;55.670;37.578;2024-03-08T09:07:01;9.77;;;6.65;;
35488;SDS011;21602;55.670;37.578;2024-03-08T09:12:51;9.00;;;5.85;;
35488;SDS011;21602;55.670;37.578;2024-03-08T09:15:26;10.75;;;5.47;;
35488;SDS011;21602;55.670;37.578;2024-03-08T09:17:56;14.75;;;6.07;;
35488;SDS011;21602;55.670;37.578;2024-03-08T09:20:22;8.88;;;5.97;;
35488;SDS011;21602;55.670;37.578;2024-03-08T09:22:49;8.57;;;5.20;;
35488;SDS011;21602;55.670;37.578;2024-03-08T09:25:22;9.43;;;5.80;;
35488;SDS011;21602;55.670;37.578;2024-03-08T09:30:18;10.55;;;6.03;;
35488;SDS011;21602;55.670;37.578;2024-03-08T09:32:54;11.27;;;6.72;;
35488;SDS011;21602;55.670;37.578;2024-03-08T09:35:20;12.23;;;5.95;;
35488;SDS011;21602;55.670;37.578;2024-03-08T09:37:48;9.50;;;6.25;;
35488;SDS011;21602;55.670;37.578;2024-03-08T09:40:17;8.40;;;5.75;;
35488;SDS011;21602;55.670;37.578;2024-03-08T09:42:48;8.38;;;6.28;;
35488;SDS011;21602;55.670;37.578;2024-03-08T09:46:08;9.90;;;6.40;;
35488;SDS011;21602;55.670;37.578;2024-03-08T09:48:45;10.32;;;6.18;;
35488;SDS011;21602;55.670;37.578;2024-03-08T09:51:22;9.20;;;6.32;;
35488;SDS011;21602;55.670;37.578;2024-03-08T09:53:56;10.23;;;6.97;;
35488;SDS011;21602;55.670;37.578;2024-03-08T09:56:44;11.25;;;6.70;;
35488;SDS011;21602;55.670;37.578;2024-03-08T09:59:18;9.82;;;6.68;;
35488;SDS011;21602;55.670;37.578;2024-03-08T10:02:29;9.63;;;6.13;;
35488;SDS011;21602;55.670;37.578;2024-03-08T10:05:02;9.15;;;7.00;;
35488;SDS011;21602;55.670;37.578;2024-03-08T10:07:29;9.55;;;6.93;;
35488;SDS011;21602;55.670;37.578;2024-03-08T10:10:00;14.25;;;7.55;;
35488;SDS011;21602;55.670;37.578;2024-03-08T10:12:28;11.27;;;6.53;;
35488;SDS011;21602;55.670;37.578;2024-03-08T10:14:58;9.13;;;6.05;;
35488;SDS011;21602;55.670;37.578;2024-03-08T10:17:44;10.18;;;6.22;;
35488;SDS011;21602;55.670;37.578;2024-03-08T10:20:28;10.93;;;6.60;;
35488;SDS011;21602;55.670;37.578;2024-03-08T10:23:04;11.35;;;6.95;;
35488;SDS011;21602;55.670;37.578;2024-03-08T10:25:33;10.20;;;6.47;;
35488;SDS011;21602;55.670;37.578;2024-03-08T10:28:12;9.52;;;6.65;;
35488;SDS011;21602;55.670;37.578;2024-03-08T10:30:55;11.25;;;7.00;;
35488;SDS011;21602;55.670;37.578;2024-03-08T10:33:24;10.50;;;6.72;;
35488;SDS011;21602;55.670;37.578;2024-03-08T10:35:52;11.88;;;6.95;;
35488;SDS011;21602;55.670;37.578;2024-03-08T10:38:30;8.60;;;6.32;;
35488;SDS011;21602;55.670;37.578;2024-03-08T10:41:03;12.15;;;6.75;;
35488;SDS011;21602;55.670;37.578;2024-03-08T10:43:32;13.27;;;7.15;;
35488;SDS011;21602;55.670;37.578;2024-03-08T10:46:30;10.75;;;6.13;;
35488;SDS011;21602;55.670;37.578;2024-03-08T10:52:16;9.13;;;6.68;;
35488;SDS011;21602;55.670;37.578;2024-03-08T10:55:37;8.25;;;6.32;;
35488;SDS011;21602;55.670;37.578;2024-03-08T10:58:06;8.95;;;6.72;;
35488;SDS011;21602;55.670;37.578;2024-03-08T11:00:33;10.02;;;6.72;;
35488;SDS011;21602;55.670;37.578;2024-03-08T11:03:00;9.27;;;6.38;;
35488;SDS011;21602;55.670;37.578;2024-03-08T11:10:49;9.93;;;5.90;;
35488;SDS011;21602;55.670;37.578;2024-03-08T11:16:02;12.32;;;6.57;;
35488;SDS011;21602;55.670;37.578;2024-03-08T11:18:33;11.35;;;6.97;;
35488;SDS011;21602;55.670;37.578;2024-03-08T11:21:07;11.63;;;7.63;;
35488;SDS011;21602;55.670;37.578;2024-03-08T11:24:13;13.23;;;6.22;;
35488;SDS011;21602;55.670;37.578;2024-03-08T11:26:47;9.35;;;6.63;;
35488;SDS011;21602;55.670;37.578;2024-03-08T11:32:16;7.47;;;6.10;;
35488;SDS011;21602;55.670;37.578;2024-03-08T11:34:55;8.90;;;6.40;;
35488;SDS011;21602;55.670;37.578;2024-03-08T11:37:24;8.80;;;6.25;;
35488;SDS011;21602;55.670;37.578;2024-03-08T11:39:54;7.32;;;5.40;;
35488;SDS011;21602;55.670;37.578;2024-03-08T11:42:30;7.47;;;5.20;;
35488;SDS011;21602;55.670;37.578;2024-03-08T11:44:56;9.73;;;6.78;;
35488;SDS011;21602;55.670;37.578;2024-03-08T11:47:24;9.05;;;6.47;;
35488;SDS011;21602;55.670;37.578;2024-03-08T11:49:52;8.23;;;5.25;;
35488;SDS011;21602;55.670;37.578;2024-03-08T11:52:29;7.22;;;5.72;;
35488;SDS011;21602;55.670;37.578;2024-03-08T11:55:06;10.73;;;7.25;;
35488;SDS011;21602;55.670;37.578;2024-03-08T11:57:33;9.50;;;5.88;;
35488;SDS011;21602;55.670;37.578;2024-03-08T12:00:14;8.63;;;6.28;;
35488;SDS011;21602;55.670;37.578;2024-03-08T12:03:03;8.73;;;5.65;;
35488;SDS011;21602;55.670;37.578;2024-03-08T12:05:32;10.93;;;6.30;;
35488;SDS011;21602;55.670;37.578;2024-03-08T12:08:04;10.60;;;6.15;;
35488;SDS011;21602;55.670;37.578;2024-03-08T12:10:32;7.57;;;5.80;;
35488;SDS011;21602;55.670;37.578;2024-03-08T12:13:08;8.23;;;5.38;;
35488;SDS011;21602;55.670;37.578;2024-03-08T12:15:41;8.02;;;5.30;;
35488;SDS011;21602;55.670;37.578;2024-03-08T12:18:08;8.35;;;5.30;;
35488;SDS011;21602;55.670;37.578;2024-03-08T12:20:35;8.40;;;5.75;;
35488;SDS011;21602;55.670;37.578;2024-03-08T12:23:04;11.82;;;6.13;;
35488;SDS011;21602;55.670;37.578;2024-03-08T12:25:33;8.48;;;6.13;;
35488;SDS011;21602;55.670;37.578;2024-03-08T12:28:09;11.73;;;5.97;;
35488;SDS011;21602;55.670;37.578;2024-03-08T12:30:49;8.48;;;5.68;;
35488;SDS011;21602;55.670;37.578;2024-03-08T12:33:18;10.75;;;5.82;;
35488;SDS011;21602;55.670;37.578;2024-03-08T12:35:50;9.43;;;5.80;;
35488;SDS011;21602;55.670;37.578;2024-03-08T12:38:27;9.73;;;6.35;;
35488;SDS011;21602;55.670;37.578;2024-03-08T12:40:59;8.50;;;6.50;;
35488;SDS011;21602;55.670;37.578;2024-03-08T12:43:26;10.20;;;5.95;;
35488;SDS011;21602;55.670;37.578;2024-03-08T12:46:01;7.03;;;5.28;;
35488;SDS011;21602;55.670;37.578;2024-03-08T12:48:33;6.90;;;4.90;;
35488;SDS011;21602;55.670;37.578;2024-03-08T12:51:15;7.18;;;5.00;;
35488;SDS011;21602;55.670;37.578;2024-03-08T12:53:46;6.22;;;4.43;;
35488;SDS011;21602;55.670;37.578;2024-03-08T12:56:12;8.02;;;5.13;;
35488;SDS011;21602;55.670;37.578;2024-03-08T12:59:01;6.20;;;4.28;;
35488;SDS011;21602;55.670;37.578;2024-03-08T13:01:30;6.82;;;5.43;;
35488;SDS011;21602;55.670;37.578;2024-03-08T13:04:02;6.40;;;4.47;;
35488;SDS011;21602;55.670;37.578;2024-03-08T13:06:54;5.90;;;4.18;;
35488;SDS011;21602;55.670;37.578;2024-03-08T13:09:20;9.77;;;5.03;;
35488;SDS011;21602;55.670;37.578;2024-03-08T13:11:47;8.10;;;5.35;;
35488;SDS011;21602;55.670;37.578;2024-03-08T13:14:15;8.70;;;5.47;;
35488;SDS011;21602;55.670;37.578;2024-03-08T13:16:44;7.88;;;4.30;;
35488;SDS011;21602;55.670;37.578;2024-03-08T13:19:13;6.13;;;4.70;;
35488;SDS011;21602;55.670;37.578;2024-03-08T13:21:39;5.97;;;4.13;;
35488;SDS011;21602;55.670;37.578;2024-03-08T13:24:25;12.90;;;6.03;;
35488;SDS011;21602;55.670;37.578;2024-03-08T13:26:50;9.77;;;5.38;;
35488;SDS011;21602;55.670;37.578;2024-03-08T13:29:28;7.07;;;4.82;;
35488;SDS011;21602;55.670;37.578;2024-03-08T13:31:59;10.05;;;4.72;;
35488;SDS011;21602;55.670;37.578;2024-03-08T13:34:30;6.07;;;4.57;;
35488;SDS011;21602;55.670;37.578;2024-03-08T13:37:00;7.85;;;3.83;;
35488;SDS011;21602;55.670;37.578;2024-03-08T13:39:26;6.00;;;4.10;;
35488;SDS011;21602;55.670;37.578;2024-03-08T13:41:52;6.97;;;4.43;;
35488;SDS011;21602;55.670;37.578;2024-03-08T13:44:23;4.65;;;3.15;;
35488;SDS011;21602;55.670;37.578;2024-03-08T13:46:51;5.70;;;3.58;;
35488;SDS011;21602;55.670;37.578;2024-03-08T13:49:16;7.80;;;4.20;;
35488;SDS011;21602;55.670;37.578;2024-03-08T13:54:10;5.93;;;3.45;;
35488;SDS011;21602;55.670;37.578;2024-03-08T13:56:57;5.18;;;3.97;;
35488;SDS011;21602;55.670;37.578;2024-03-08T13:59:23;5.78;;;4.18;;
35488;SDS011;21602;55.670;37.578;2024-03-08T14:01:49;4.97;;;3.88;;
35488;SDS011;21602;55.670;37.578;2024-03-08T14:04:15;5.63;;;4.25;;
35488;SDS011;21602;55.670;37.578;2024-03-08T14:06:44;5.18;;;4.00;;
35488;SDS011;21602;55.670;37.578;2024-03-08T14:09:12;7.20;;;4.47;;
35488;SDS011;21602;55.670;37.578;2024-03-08T14:11:50;7.63;;;4.18;;
35488;SDS011;21602;55.670;37.578;2024-03-08T14:14:20;7.85;;;3.83;;
35488;SDS011;21602;55.670;37.578;2024-03-08T14:16:49;10.02;;;4.85;;
35488;SDS011;21602;55.670;37.578;2024-03-08T14:19:23;6.30;;;4.40;;
35488;SDS011;21602;55.670;37.578;2024-03-08T14:21:52;6.75;;;3.88;;
35488;SDS011;21602;55.670;37.578;2024-03-08T14:24:21;4.65;;;3.67;;
35488;SDS011;21602;55.670;37.578;2024-03-08T14:26:47;7.35;;;4.43;;
35488;SDS011;21602;55.670;37.578;2024-03-08T14:29:22;6.13;;;3.97;;
35488;SDS011;21602;55.670;37.578;2024-03-08T14:31:55;7.75;;;4.50;;
35488;SDS011;21602;55.670;37.578;2024-03-08T14:34:42;6.38;;;4.03;;
35488;SDS011;21602;55.670;37.578;2024-03-08T14:37:20;7.70;;;4.35;;
35488;SDS011;21602;55.670;37.578;2024-03-08T14:40:22;5.95;;;3.45;;
35488;SDS011;21602;55.670;37.578;2024-03-08T14:42:55;4.65;;;3.30;;
35488;SDS011;21602;55.670;37.578;2024-03-08T14:45:22;8.00;;;3.70;;
35488;SDS011;21602;55.670;37.578;2024-03-08T14:47:51;5.50;;;3.50;;
35488;SDS011;21602;55.670;37.578;2024-03-08T14:52:45;4.38;;;3.15;;
35488;SDS011;21602;55.670;37.578;2024-03-08T14:55:16;4.43;;;3.38;;
35488;SDS011;21602;55.670;37.578;2024-03-08T14:57:49;5.72;;;3.85;;
35488;SDS011;21602;55.670;37.578;2024-03-08T15:00:19;6.13;;;3.85;;
35488;SDS011;21602;55.670;37.578;2024-03-08T15:02:54;6.07;;;4.38;;
35488;SDS011;21602;55.670;37.578;2024-03-08T15:05:22;5.90;;;3.58;;
35488;SDS011;21602;55.670;37.578;2024-03-08T15:07:53;6.95;;;4.72;;
35488;SDS011;21602;55.670;37.578;2024-03-08T15:10:20;5.65;;;4.03;;
35488;SDS011;21602;55.670;37.578;2024-03-08T15:12:49;6.38;;;3.72;;
35488;SDS011;21602;55.670;37.578;2024-03-08T15:15:18;6.60;;;3.85;;
35488;SDS011;21602;55.670;37.578;2024-03-08T15:17:44;5.47;;;3.78;;
35488;SDS011;21602;55.670;37.578;2024-03-08T15:20:33;5.70;;;3.28;;
35488;SDS011;21602;55.670;37.578;2024-03-08T15:26:29;4.90;;;3.30;;
35488;SDS011;21602;55.670;37.578;2024-03-08T15:29:03;5.60;;;3.55;;
35488;SDS011;21602;55.670;37.578;2024-03-08T15:31:33;5.28;;;3.30;;
35488;SDS011;21602;55.670;37.578;2024-03-08T15:34:03;4.18;;;3.50;;
35488;SDS011;21602;55.670;37.578;2024-03-08T15:36:44;4.53;;;3.13;;
35488;SDS011;21602;55.670;37.578;2024-03-08T15:39:21;6.03;;;3.58;;